Kezdőlap
METAR-TAF:

METAR-TAF

Repülőterek :

Aurora Municipal Airport (Al Potter Field)

Aurora, Nebraska, Amerikai Egyesült Államok

földrajzi szélesség: 40-53-38N, földrajzi hosszúság: 097-59-40W, magasság: 550 m

Jelenlegi meteorológiai megfigyelések

A jelentés 15 perccel ezelõtt készült, 20:35 UTC
Északnyugati szél 9 kt széllökések: 17 kt
Hőmérséklet 24°C
Páratartalom 47%
Légköri nyomás 1006 hPa
Látótávolság: 16.1 km
Szórványos felhőzet 5000 lábon

METAR: KAUH 262035Z AUTO 31009G17KT 10SM SCT050 24/12 A2970 RMK AO2 T02350118

Idő: 15:50 (20:50 UTC)


TAF: hiányzik

Meteorológiai megfigyelések és előrejelzések több, mint 4000 repülőtéren (METAR és TAF jelentéseket).

A térképen piros és sárga pontok jelzik az elérhető meteorológiai állomásokat.

Mozgassa az egeret a pont fölött, hogy megjelenjen az állomás neve.

Azután kattintson az időjárási megfigyelések és előrejelzések megtekintéséhez.

A térkép megváltoztatása: kattintson a fekete keresztel jelölt zöld gombra ráközelítéshez, a vonallal jelölt zöld gombra távolításhoz, vagy a zöld nyilakra a szomszédos térképek eléréséhez.


METAR-TAF: